Heat Index [SAI AWOS/ASOS Display]_________FAA Disclaimer: "Not for use in aviation at this time______________" Untitled Document
Hamilton Municipal Airport NY (VGC)
170
17:12
17/05/22
07
N/A
N/A
29.97
N/A
1134
57(F), 14(C)
54(F), 12(C)
56 F
88%
SCT015 BKN029 OVC075
10
N/A
P0001
N/A
17:12 zulu Wind 170 at 07 Knots, Altimeter 29.97
METAR KVGC 221712Z AUTO 17007KT 10SM SCT015 BKN029 OVC075 14/12 A2997 A02 P0001
METAR:
FAA Disclaimer--Advisory Use ONLY, not for flight info--
INFO:
Wind Direction:
Wind Speed:
Wind Gust:
Wind Variable:
Altimeter:
Dens Alt:
Elev:
Temp:
Dwpt:
Wind Chill
Rel Humidity:
Ceiling:
Visibility:
Prsnt Wea:
PCPN:
Remarks:
How to read the WebPage